createdAt,value
2019-03-16T00:00:18.072Z,91.20
2019-03-16T00:02:47.761Z,91.40
2019-03-16T00:05:17.348Z,91.40
2019-03-16T00:07:46.965Z,91.00
2019-03-16T00:10:16.563Z,91.20
2019-03-16T00:12:46.181Z,91.70
2019-03-16T00:15:15.801Z,91.00
2019-03-16T00:17:45.405Z,91.80
2019-03-16T00:20:15.200Z,90.90
2019-03-16T00:22:44.829Z,91.30
2019-03-16T00:25:14.420Z,91.50
2019-03-16T00:27:44.033Z,91.80
2019-03-16T00:30:15.829Z,91.40
2019-03-16T00:32:45.476Z,91.40
2019-03-16T00:35:15.209Z,91.30
2019-03-16T00:37:44.823Z,91.60
2019-03-16T00:40:14.864Z,91.60
2019-03-16T00:42:44.540Z,92.10
2019-03-16T00:45:14.293Z,92.20
2019-03-16T00:47:43.963Z,92.20
2019-03-16T00:50:14.985Z,92.70
2019-03-16T00:52:44.668Z,91.70
2019-03-16T00:55:16.157Z,92.10
2019-03-16T00:57:45.798Z,92.40
2019-03-16T01:00:19.102Z,91.50
2019-03-16T01:02:48.693Z,90.60
2019-03-16T01:05:18.293Z,91.90
2019-03-16T01:07:47.882Z,91.60
2019-03-16T01:10:17.621Z,91.30
2019-03-16T01:12:47.235Z,91.60
2019-03-16T01:15:16.816Z,90.80
2019-03-16T01:17:46.472Z,91.30
2019-03-16T01:20:16.239Z,92.00
2019-03-16T01:22:45.912Z,92.70
2019-03-16T01:25:15.741Z,92.50
2019-03-16T01:27:45.362Z,91.20
2019-03-16T01:30:17.082Z,92.00
2019-03-16T01:32:46.749Z,92.00
2019-03-16T01:35:16.419Z,91.80
2019-03-16T01:37:46.038Z,91.60
2019-03-16T01:40:15.625Z,91.50
2019-03-16T01:42:45.218Z,91.80
2019-03-16T01:45:14.969Z,92.30
2019-03-16T01:47:44.562Z,91.80
2019-03-16T01:50:14.976Z,91.30
2019-03-16T01:52:44.592Z,91.20
2019-03-16T01:55:14.280Z,91.50
2019-03-16T01:57:43.913Z,91.80
2019-03-16T02:00:15.637Z,91.30
2019-03-16T02:02:55.132Z,91.10
2019-03-16T02:05:16.716Z,91.20
2019-03-16T02:07:46.332Z,91.50
2019-03-16T02:10:16.083Z,90.90
2019-03-16T02:12:45.736Z,90.60
2019-03-16T02:15:15.489Z,91.00
2019-03-16T02:17:45.081Z,91.30
2019-03-16T02:20:14.696Z,91.10
2019-03-16T02:22:44.302Z,91.00
2019-03-16T02:25:14.057Z,91.10
2019-03-16T02:27:43.674Z,91.50
2019-03-16T02:30:14.097Z,91.20
2019-03-16T02:32:43.812Z,91.50
2019-03-16T02:35:13.484Z,91.60
2019-03-16T02:37:43.193Z,91.60
2019-03-16T02:40:13.125Z,92.10
2019-03-16T02:42:42.715Z,91.90
2019-03-16T02:45:12.605Z,91.80
2019-03-16T02:47:42.231Z,91.40
2019-03-16T02:50:13.346Z,91.20
2019-03-16T02:52:42.933Z,91.50
2019-03-16T02:55:12.545Z,91.80
2019-03-16T02:57:42.135Z,92.10
2019-03-16T03:00:13.566Z,91.90
2019-03-16T03:02:43.214Z,91.50
2019-03-16T03:05:13.141Z,91.50
2019-03-16T03:07:42.891Z,91.90
2019-03-16T03:10:16.697Z,91.70
2019-03-16T03:12:46.279Z,91.20
2019-03-16T03:15:16.109Z,90.90
2019-03-16T03:17:45.761Z,91.10
2019-03-16T03:20:15.541Z,90.90
2019-03-16T03:22:45.131Z,90.40
2019-03-16T03:25:14.756Z,90.40
2019-03-16T03:27:44.432Z,90.40
2019-03-16T03:30:14.723Z,90.60
2019-03-16T03:32:44.407Z,90.40
2019-03-16T03:35:14.115Z,90.10
2019-03-16T03:37:43.720Z,89.60
2019-03-16T03:40:14.126Z,89.40
2019-03-16T03:42:43.723Z,89.00
2019-03-16T03:45:14.676Z,88.60
2019-03-16T03:47:44.425Z,88.20
2019-03-16T03:50:16.149Z,88.40
2019-03-16T03:52:45.941Z,89.40
2019-03-16T03:55:16.160Z,89.60
2019-03-16T03:57:45.749Z,89.80
2019-03-16T04:00:18.228Z,89.90
2019-03-16T04:02:48.144Z,89.70
2019-03-16T04:05:17.860Z,89.90
2019-03-16T04:07:47.671Z,89.90
2019-03-16T04:10:17.497Z,90.10
2019-03-16T04:12:47.190Z,90.00
2019-03-16T04:15:16.801Z,90.10
2019-03-16T04:17:46.554Z,90.20
2019-03-16T04:20:16.752Z,90.30
2019-03-16T04:22:46.542Z,90.60
2019-03-16T04:25:16.170Z,90.50
2019-03-16T04:27:45.760Z,90.60
2019-03-16T04:30:15.570Z,90.60
2019-03-16T04:32:45.157Z,90.60
2019-03-16T04:35:14.906Z,90.60
2019-03-16T04:37:44.492Z,90.70
2019-03-16T04:40:14.519Z,90.70
2019-03-16T04:42:44.241Z,90.70
2019-03-16T04:45:13.994Z,90.60
2019-03-16T04:47:43.610Z,90.40
2019-03-16T04:50:13.823Z,90.40
2019-03-16T04:52:43.457Z,90.40
2019-03-16T04:55:13.108Z,90.30
2019-03-16T04:57:42.716Z,90.30
2019-03-16T05:00:14.750Z,90.00
2019-03-16T05:02:44.369Z,89.70
2019-03-16T05:05:15.288Z,90.00
2019-03-16T05:07:44.913Z,90.20
2019-03-16T05:10:14.743Z,90.10
2019-03-16T05:12:44.326Z,89.50
2019-03-16T05:15:34.547Z,89.60
2019-03-16T05:18:04.161Z,89.30
2019-03-16T05:20:33.750Z,89.20
2019-03-16T05:23:03.364Z,89.40
2019-03-16T05:25:33.498Z,89.10
2019-03-16T05:28:03.176Z,89.40
2019-03-16T05:30:32.766Z,89.70
2019-03-16T05:33:02.384Z,89.50
2019-03-16T05:35:32.005Z,89.90
2019-03-16T05:38:01.620Z,89.50
2019-03-16T05:40:31.236Z,89.60
2019-03-16T05:43:00.826Z,89.40
2019-03-16T05:45:30.529Z,89.80
2019-03-16T05:48:00.119Z,89.70
2019-03-16T05:50:29.728Z,89.80
2019-03-16T05:52:59.319Z,89.50
2019-03-16T05:55:28.938Z,89.30
2019-03-16T05:57:58.545Z,89.30
2019-03-16T06:00:28.239Z,88.20
2019-03-16T06:02:57.825Z,88.80
2019-03-16T06:05:27.438Z,88.00
2019-03-16T06:07:57.083Z,88.30
2019-03-16T06:10:26.669Z,88.00
2019-03-16T06:12:56.322Z,87.70
2019-03-16T06:15:26.020Z,87.00
2019-03-16T06:17:55.604Z,86.80
2019-03-16T06:20:25.222Z,86.90
2019-03-16T06:22:54.806Z,85.70
2019-03-16T06:25:24.421Z,84.70
2019-03-16T06:27:54.010Z,84.00
2019-03-16T06:30:23.629Z,84.00
2019-03-16T06:32:53.345Z,84.30
2019-03-16T06:35:25.465Z,82.20
2019-03-16T06:37:54.273Z,82.40
2019-03-16T06:40:24.045Z,81.70
2019-03-16T06:42:53.635Z,81.10
2019-03-16T06:45:23.259Z,81.50
2019-03-16T06:47:54.676Z,81.50
2019-03-16T06:50:24.318Z,81.80
2019-03-16T06:52:53.911Z,81.20
2019-03-16T06:55:23.596Z,81.80
2019-03-16T06:57:53.204Z,82.20
2019-03-16T07:00:22.845Z,81.60
2019-03-16T07:02:52.471Z,82.50
2019-03-16T07:05:23.644Z,81.90
2019-03-16T07:07:53.502Z,81.40
2019-03-16T07:10:23.130Z,80.90
2019-03-16T07:12:52.751Z,80.60
2019-03-16T07:15:22.519Z,79.70
2019-03-16T07:17:52.143Z,80.40
2019-03-16T07:20:21.734Z,80.50
2019-03-16T07:22:51.363Z,80.00
2019-03-16T07:25:20.986Z,80.10
2019-03-16T07:27:50.586Z,80.00
2019-03-16T07:30:20.266Z,79.90
2019-03-16T07:32:49.887Z,78.70
2019-03-16T07:35:19.485Z,79.20
2019-03-16T07:37:49.143Z,80.70
2019-03-16T07:40:18.756Z,79.60
2019-03-16T07:42:48.375Z,80.10
2019-03-16T07:45:18.006Z,78.40
2019-03-16T07:47:47.632Z,79.60
2019-03-16T07:50:17.486Z,79.30
2019-03-16T07:52:47.112Z,78.00
2019-03-16T07:55:16.853Z,78.40
2019-03-16T07:57:46.540Z,77.60
2019-03-16T08:00:16.199Z,77.90
2019-03-16T08:02:45.824Z,77.60
2019-03-16T08:05:19.458Z,76.30
2019-03-16T08:07:46.955Z,75.30
2019-03-16T08:10:16.556Z,73.80
2019-03-16T08:12:46.253Z,74.30
2019-03-16T08:15:15.942Z,75.60
2019-03-16T08:17:45.568Z,74.00
2019-03-16T08:20:15.585Z,74.30
2019-03-16T08:22:45.280Z,74.60
2019-03-16T08:25:15.215Z,74.50
2019-03-16T08:27:54.137Z,74.10
2019-03-16T08:30:16.229Z,72.80
2019-03-16T08:32:45.861Z,73.40
2019-03-16T08:35:15.504Z,73.60
2019-03-16T08:37:45.099Z,73.20
2019-03-16T08:40:14.775Z,72.90
2019-03-16T08:42:44.626Z,72.30
2019-03-16T08:45:14.246Z,71.90
2019-03-16T08:47:43.847Z,69.90
2019-03-16T08:50:13.764Z,70.60
2019-03-16T08:52:43.431Z,70.80
2019-03-16T08:55:13.495Z,70.00
2019-03-16T08:57:43.094Z,70.30
2019-03-16T09:00:15.139Z,69.40
2019-03-16T09:02:44.884Z,68.10
2019-03-16T09:05:14.528Z,68.10
2019-03-16T09:07:44.187Z,67.70
2019-03-16T09:10:13.984Z,66.40
2019-03-16T09:12:54.378Z,65.50
2019-03-16T09:15:16.534Z,66.60
2019-03-16T09:17:46.160Z,65.60
2019-03-16T09:20:15.753Z,64.70
2019-03-16T09:22:45.411Z,64.60
2019-03-16T09:25:15.264Z,64.30
2019-03-16T09:27:44.866Z,63.70
2019-03-16T09:30:17.167Z,64.40
2019-03-16T09:32:46.836Z,64.60
2019-03-16T09:35:16.565Z,65.10
2019-03-16T09:37:46.247Z,63.40
2019-03-16T09:40:27.629Z,64.50
2019-03-16T09:42:57.290Z,65.20
2019-03-16T09:45:26.980Z,65.70
2019-03-16T09:47:56.582Z,64.90
2019-03-16T09:50:26.257Z,67.50
2019-03-16T09:52:55.963Z,67.30
2019-03-16T09:55:25.650Z,68.20
2019-03-16T09:57:55.288Z,68.90
2019-03-16T10:00:25.010Z,67.80
2019-03-16T10:02:54.638Z,68.00
2019-03-16T10:05:24.335Z,68.40
2019-03-16T10:07:53.935Z,69.30
2019-03-16T10:10:23.560Z,70.40
2019-03-16T10:12:53.160Z,70.50
2019-03-16T10:15:22.811Z,71.70
2019-03-16T10:17:52.408Z,71.40
2019-03-16T10:20:22.012Z,72.10
2019-03-16T10:22:51.633Z,72.40
2019-03-16T10:25:21.243Z,72.80
2019-03-16T10:27:50.877Z,73.10
2019-03-16T10:30:20.484Z,73.40
2019-03-16T10:32:50.196Z,73.80
2019-03-16T10:35:19.802Z,73.50
2019-03-16T10:37:49.394Z,73.50
2019-03-16T10:40:19.024Z,73.90
2019-03-16T10:42:48.619Z,73.50
2019-03-16T10:45:18.216Z,74.00
2019-03-16T10:47:47.915Z,73.30
2019-03-16T10:50:17.607Z,73.90
2019-03-16T10:52:47.215Z,73.80
2019-03-16T10:55:16.836Z,73.80
2019-03-16T10:57:46.478Z,72.80
2019-03-16T11:00:17.566Z,72.80
2019-03-16T11:02:47.271Z,72.80
2019-03-16T11:05:17.194Z,72.80
2019-03-16T11:07:46.817Z,72.50
2019-03-16T11:10:16.483Z,71.70
2019-03-16T11:12:46.176Z,70.20
2019-03-16T11:15:16.107Z,69.30
2019-03-16T11:17:45.874Z,68.70
2019-03-16T11:20:20.247Z,68.90
2019-03-16T11:22:49.874Z,68.30
2019-03-16T11:25:19.502Z,67.00
2019-03-16T11:27:49.098Z,66.50
2019-03-16T11:30:19.365Z,66.00
2019-03-16T11:32:48.982Z,65.60
2019-03-16T11:35:18.581Z,65.70
2019-03-16T11:37:48.230Z,65.70
2019-03-16T11:40:19.330Z,64.30
2019-03-16T11:42:48.954Z,63.20
2019-03-16T11:45:18.621Z,63.10
2019-03-16T11:47:48.242Z,64.60
2019-03-16T11:50:17.988Z,63.30
2019-03-16T11:52:47.607Z,62.40
2019-03-16T11:55:17.248Z,62.20
2019-03-16T11:57:46.942Z,61.60
2019-03-16T12:00:16.972Z,62.70
2019-03-16T12:02:46.645Z,62.10
2019-03-16T12:05:16.504Z,62.80
2019-03-16T12:07:46.146Z,62.20
2019-03-16T12:10:16.788Z,62.90
2019-03-16T12:12:46.457Z,63.70
2019-03-16T12:15:16.415Z,62.70
2019-03-16T12:17:46.026Z,62.80
2019-03-16T12:20:19.274Z,62.50
2019-03-16T12:22:48.862Z,63.90
2019-03-16T12:25:18.594Z,63.60
2019-03-16T12:27:48.223Z,65.20
2019-03-16T12:30:18.410Z,64.10
2019-03-16T12:32:47.987Z,65.00
2019-03-16T12:35:17.751Z,65.80
2019-03-16T12:37:47.426Z,66.00
2019-03-16T12:40:17.483Z,66.80
2019-03-16T12:42:47.090Z,67.90
2019-03-16T12:45:21.197Z,68.00
2019-03-16T12:47:51.712Z,67.10
2019-03-16T12:50:21.339Z,67.70
2019-03-16T12:52:50.935Z,67.10
2019-03-16T12:55:20.554Z,67.50
2019-03-16T12:57:50.183Z,67.80
2019-03-16T13:00:20.887Z,66.80
2019-03-16T13:02:50.732Z,66.70
2019-03-16T13:05:20.411Z,68.30
2019-03-16T13:07:50.008Z,68.50
2019-03-16T13:10:20.848Z,68.80
2019-03-16T13:12:50.446Z,68.70
2019-03-16T13:15:20.046Z,68.90
2019-03-16T13:17:49.668Z,68.40
2019-03-16T13:20:19.432Z,68.70
2019-03-16T13:22:49.089Z,67.60
2019-03-16T13:25:18.831Z,68.20
2019-03-16T13:27:48.426Z,67.90
2019-03-16T13:30:21.887Z,68.20
2019-03-16T13:32:51.484Z,67.10
2019-03-16T13:35:21.073Z,66.40
2019-03-16T13:37:50.694Z,66.20
2019-03-16T13:40:20.610Z,65.70
2019-03-16T13:42:50.241Z,66.00
2019-03-16T13:45:20.655Z,66.60
2019-03-16T13:47:51.952Z,65.80
2019-03-16T13:50:22.331Z,65.50
2019-03-16T13:52:52.210Z,64.90
2019-03-16T13:55:21.822Z,65.10
2019-03-16T13:57:51.449Z,65.60
2019-03-16T14:00:22.060Z,64.90
2019-03-16T14:02:51.747Z,66.50
2019-03-16T14:05:21.507Z,65.90
2019-03-16T14:07:51.182Z,67.00
2019-03-16T14:10:25.048Z,67.60
2019-03-16T14:12:54.642Z,67.60
2019-03-16T14:15:24.291Z,68.40
2019-03-16T14:17:53.884Z,68.50
2019-03-16T14:20:23.964Z,68.20
2019-03-16T14:22:53.931Z,68.40
2019-03-16T14:25:23.522Z,68.10
2019-03-16T14:27:53.135Z,67.90
2019-03-16T14:30:39.922Z,67.50
2019-03-16T14:32:54.352Z,67.20
2019-03-16T14:35:24.051Z,67.00
2019-03-16T14:37:53.646Z,67.00
2019-03-16T14:40:23.651Z,67.40
2019-03-16T14:42:53.210Z,67.80
2019-03-16T14:45:23.115Z,68.20
2019-03-16T14:47:52.711Z,68.60
2019-03-16T14:50:27.368Z,69.30
2019-03-16T14:52:56.959Z,69.50
2019-03-16T14:55:26.657Z,69.00
2019-03-16T14:57:56.272Z,68.60
2019-03-16T15:00:37.922Z,69.60
2019-03-16T15:02:57.242Z,68.90
2019-03-16T15:05:26.846Z,69.20
2019-03-16T15:07:56.448Z,69.20
2019-03-16T15:10:26.067Z,70.40
2019-03-16T15:12:55.763Z,70.60
2019-03-16T15:15:25.955Z,70.70
2019-03-16T15:17:55.549Z,71.00
2019-03-16T15:20:25.216Z,71.00
2019-03-16T15:22:54.842Z,71.00
2019-03-16T15:25:24.437Z,70.80
2019-03-16T15:27:54.132Z,71.30
2019-03-16T15:30:23.807Z,71.30
2019-03-16T15:32:53.432Z,71.00
2019-03-16T15:35:23.122Z,71.10
2019-03-16T15:37:52.739Z,70.70
2019-03-16T15:40:22.432Z,70.20
2019-03-16T15:42:52.026Z,70.00
2019-03-16T15:45:30.865Z,69.30
2019-03-16T15:48:00.464Z,69.50
2019-03-16T15:50:30.124Z,68.90
2019-03-16T15:52:59.722Z,68.40
2019-03-16T15:55:29.445Z,68.10
2019-03-16T15:58:07.982Z,68.50
2019-03-16T16:00:30.588Z,68.30
2019-03-16T16:03:00.212Z,68.60
2019-03-16T16:05:29.836Z,69.00
2019-03-16T16:07:59.462Z,68.90
2019-03-16T16:10:29.095Z,68.90
2019-03-16T16:12:58.705Z,69.20
2019-03-16T16:15:28.447Z,69.20
2019-03-16T16:17:58.039Z,69.90
2019-03-16T16:20:27.736Z,69.80
2019-03-16T16:22:57.444Z,70.10
2019-03-16T16:25:27.069Z,71.00
2019-03-16T16:27:56.692Z,71.60
2019-03-16T16:30:26.403Z,72.00
2019-03-16T16:32:56.095Z,72.30
2019-03-16T16:35:25.712Z,73.40
2019-03-16T16:37:55.307Z,74.10
2019-03-16T16:40:25.002Z,74.60
2019-03-16T16:42:54.704Z,75.40
2019-03-16T16:45:24.335Z,76.10
2019-03-16T16:47:53.935Z,76.60
2019-03-16T16:50:25.660Z,79.10
2019-03-16T16:52:55.400Z,80.20
2019-03-16T16:55:25.034Z,78.50
2019-03-16T16:57:54.626Z,79.60
2019-03-16T17:00:28.819Z,80.10
2019-03-16T17:02:58.479Z,80.90
2019-03-16T17:05:28.149Z,82.80
2019-03-16T17:07:57.775Z,82.20
2019-03-16T17:10:27.477Z,81.90
2019-03-16T17:12:57.091Z,81.70
2019-03-16T17:15:26.789Z,83.20
2019-03-16T17:17:56.383Z,85.60
2019-03-16T17:20:25.987Z,85.00
2019-03-16T17:22:55.612Z,83.40
2019-03-16T17:25:25.210Z,84.60
2019-03-16T17:27:54.868Z,86.10
2019-03-16T17:30:30.186Z,85.50
2019-03-16T17:32:59.881Z,85.50
2019-03-16T17:35:29.589Z,87.00
2019-03-16T17:37:59.185Z,86.30
2019-03-16T17:40:28.799Z,86.70
2019-03-16T17:42:58.426Z,87.10
2019-03-16T17:45:28.023Z,87.30
2019-03-16T17:47:57.638Z,87.20
2019-03-16T17:50:27.234Z,87.30
2019-03-16T17:52:56.850Z,86.80
2019-03-16T17:55:26.466Z,87.30
2019-03-16T17:57:56.063Z,87.00
2019-03-16T18:00:25.782Z,88.20
2019-03-16T18:02:55.436Z,88.20
2019-03-16T18:05:25.030Z,87.20
2019-03-16T18:07:54.622Z,88.40
2019-03-16T18:10:24.319Z,90.10
2019-03-16T18:12:53.913Z,90.70
2019-03-16T18:15:23.641Z,89.70
2019-03-16T18:17:53.379Z,90.00
2019-03-16T18:20:23.169Z,90.40
2019-03-16T18:22:52.792Z,89.30
2019-03-16T18:25:22.382Z,89.50
2019-03-16T18:27:51.999Z,90.10
2019-03-16T18:30:24.522Z,90.10
2019-03-16T18:32:54.189Z,90.70
2019-03-16T18:35:23.809Z,90.40
2019-03-16T18:37:53.410Z,89.70
2019-03-16T18:40:23.027Z,90.30
2019-03-16T18:42:52.687Z,90.30
2019-03-16T18:45:29.593Z,91.40
2019-03-16T18:47:59.222Z,90.80
2019-03-16T18:50:28.831Z,91.40
2019-03-16T18:52:58.419Z,90.10
2019-03-16T18:55:28.106Z,90.50
2019-03-16T18:57:57.801Z,90.30
2019-03-16T19:00:27.461Z,88.30
2019-03-16T19:02:57.156Z,88.70
2019-03-16T19:05:26.824Z,90.90
2019-03-16T19:07:56.447Z,91.30
2019-03-16T19:10:26.112Z,91.50
2019-03-16T19:12:55.730Z,91.50
2019-03-16T19:15:25.323Z,92.30
2019-03-16T19:17:59.123Z,92.50
2019-03-16T19:20:26.332Z,92.30
2019-03-16T19:22:55.974Z,92.20
2019-03-16T19:25:25.656Z,92.20
2019-03-16T19:27:55.272Z,92.30
2019-03-16T19:30:24.963Z,91.90
2019-03-16T19:32:54.559Z,91.80
2019-03-16T19:35:24.156Z,91.60
2019-03-16T19:37:53.767Z,91.50
2019-03-16T19:40:24.771Z,91.50
2019-03-16T19:42:54.462Z,91.70
2019-03-16T19:45:24.100Z,91.10
2019-03-16T19:47:53.698Z,90.40
2019-03-16T19:50:23.292Z,88.40
2019-03-16T19:52:52.907Z,90.20
2019-03-16T19:55:22.534Z,90.60
2019-03-16T19:57:52.149Z,91.30
2019-03-16T20:00:22.023Z,91.40
2019-03-16T20:02:51.945Z,92.60
2019-03-16T20:05:21.716Z,93.40
2019-03-16T20:07:51.315Z,93.10
2019-03-16T20:10:22.260Z,92.70
2019-03-16T20:12:53.372Z,92.40
2019-03-16T20:15:23.400Z,92.10
2019-03-16T20:17:53.021Z,92.00
2019-03-16T20:20:22.615Z,91.30
2019-03-16T20:22:52.236Z,91.50
2019-03-16T20:25:21.864Z,91.50
2019-03-16T20:27:51.452Z,91.10
2019-03-16T20:30:26.478Z,90.30
2019-03-16T20:33:03.477Z,89.50
2019-03-16T20:35:23.946Z,90.60
2019-03-16T20:37:53.640Z,91.60
2019-03-16T20:40:23.275Z,91.70
2019-03-16T20:42:52.895Z,91.40
2019-03-16T20:45:22.619Z,91.40
2019-03-16T20:47:52.285Z,91.40
2019-03-16T20:50:22.143Z,91.50
2019-03-16T20:52:51.764Z,91.90
2019-03-16T20:55:21.388Z,91.50
2019-03-16T20:57:50.977Z,91.50
2019-03-16T21:00:21.046Z,91.10
2019-03-16T21:02:50.780Z,90.70
2019-03-16T21:05:20.475Z,91.40
2019-03-16T21:07:50.071Z,92.30
2019-03-16T21:10:19.662Z,92.00
2019-03-16T21:12:49.285Z,93.10
2019-03-16T21:15:19.788Z,91.90
2019-03-16T21:17:49.411Z,92.10
2019-03-16T21:20:20.310Z,92.50
2019-03-16T21:22:49.906Z,92.50
2019-03-16T21:25:19.599Z,92.50
2019-03-16T21:27:49.397Z,93.80
2019-03-16T21:30:20.803Z,93.70
2019-03-16T21:32:50.477Z,93.70
2019-03-16T21:35:20.168Z,93.70
2019-03-16T21:37:49.841Z,93.90
2019-03-16T21:40:19.574Z,92.20
2019-03-16T21:42:49.166Z,91.40
2019-03-16T21:45:19.011Z,91.80
2019-03-16T21:47:59.425Z,92.30
2019-03-16T21:50:20.177Z,93.30
2019-03-16T21:52:49.795Z,92.70
2019-03-16T21:55:19.472Z,91.80
2019-03-16T21:57:49.099Z,92.10
2019-03-16T22:00:19.231Z,92.90
2019-03-16T22:02:48.851Z,92.20
2019-03-16T22:05:18.515Z,91.70
2019-03-16T22:07:48.203Z,92.10
2019-03-16T22:10:19.386Z,92.10
2019-03-16T22:12:49.031Z,91.70
2019-03-16T22:15:19.046Z,92.50
2019-03-16T22:17:48.691Z,93.20
2019-03-16T22:20:22.323Z,92.80
2019-03-16T22:22:52.053Z,92.60
2019-03-16T22:25:21.641Z,92.10
2019-03-16T22:27:51.940Z,92.40
2019-03-16T22:30:21.785Z,91.30
2019-03-16T22:32:51.446Z,91.60
2019-03-16T22:35:21.083Z,92.30
2019-03-16T22:37:50.771Z,93.20
2019-03-16T22:40:20.365Z,92.10
2019-03-16T22:42:50.049Z,92.20
2019-03-16T22:45:19.706Z,92.50
2019-03-16T22:47:49.475Z,91.90
2019-03-16T22:50:22.739Z,92.20
2019-03-16T22:52:52.350Z,93.20
2019-03-16T22:55:21.976Z,93.40
2019-03-16T22:57:51.632Z,92.90
2019-03-16T23:00:30.660Z,93.00
2019-03-16T23:03:00.255Z,92.90
2019-03-16T23:05:29.999Z,92.80
2019-03-16T23:07:59.593Z,91.60
2019-03-16T23:10:29.307Z,91.00
2019-03-16T23:12:58.971Z,92.10
2019-03-16T23:15:28.594Z,92.50
2019-03-16T23:17:58.651Z,92.70
2019-03-16T23:20:28.339Z,91.80
2019-03-16T23:22:57.953Z,92.70
2019-03-16T23:25:27.777Z,94.20
2019-03-16T23:27:57.447Z,94.10
2019-03-16T23:30:27.106Z,94.90
2019-03-16T23:32:56.726Z,94.80
2019-03-16T23:35:26.344Z,94.50
2019-03-16T23:37:55.957Z,94.40
2019-03-16T23:40:25.627Z,94.10
2019-03-16T23:42:55.244Z,94.20
2019-03-16T23:45:24.995Z,92.30
2019-03-16T23:47:54.760Z,90.40
2019-03-16T23:50:24.347Z,90.70
2019-03-16T23:52:53.959Z,91.50
2019-03-16T23:55:23.548Z,92.40
2019-03-16T23:57:56.101Z,91.80
